Time;durP1;ratioP1;P1;durP2;ratioP2;P2;SDS_P1;SDS_P2;PMS_P1;PMS_P2;Temp;Humidity;BMP_temperature;BMP_pressure;BME280_temperature;BME280_humidity;BME280_pressure;Samples;Min_cycle;Max_cycle;Signal;HPM_P1;HPM_P2
2022/06/25 00:01:09;;;;;;;;;;;;;;;24.19;54.72;100427.53;5048448;28;4269;-61
2022/06/25 00:03:36;;;;;;;;;;;;;;;24.19;54.77;100424.66;5053495;28;4186;-59
2022/06/25 00:06:03;;;;;;;;;;;;;;;24.18;54.84;100428.22;5044671;28;4827;-59
2022/06/25 00:08:29;;;;;;;;;;;;;;;24.18;54.63;100434.75;5048433;28;4053;-59
2022/06/25 00:10:55;;;;;;;;;;;;;;;24.18;54.81;100434.75;5043030;28;5285;-59
2022/06/25 00:13:22;;;;;;;;;;;;;;;24.16;54.68;100431.78;5034261;28;4237;-59
2022/06/25 00:15:48;;;;;;;;;;;;;;;24.17;54.76;100427.50;5041532;28;4129;-59
2022/06/25 00:18:15;;;;;;;;;;;;;;;24.17;54.77;100436.16;5041517;28;4215;-60
2022/06/25 00:20:41;;;;;;;;;;;;;;;24.15;54.82;100433.22;5051432;28;5077;-59
2022/06/25 00:23:12;;;;;;;;;;;;;;;24.16;54.73;100426.00;5048701;28;5289;-60
2022/06/25 00:25:38;;;;;;;;;;;;;;;24.17;54.79;100432.56;5050924;28;4221;-60
2022/06/25 00:28:05;;;;;;;;;;;;;;;24.16;54.71;100431.78;5044669;28;4088;-60
2022/06/25 00:30:31;;;;;;;;;;;;;;;24.13;54.56;100421.59;5055879;28;4497;-60
2022/06/25 00:32:57;;;;;;;;;;;;;;;24.14;55.07;100428.13;5052351;28;5512;-60
2022/06/25 00:35:25;;;;;;;;;;;;;;;24.15;55.30;100433.22;5051131;28;4203;-60
2022/06/25 00:37:51;;;;;;;;;;;;;;;24.13;55.67;100427.38;5055169;28;4190;-59
2022/06/25 00:40:17;;;;;;;;;;;;;;;24.12;55.92;100425.94;5051630;28;5295;-59
2022/06/25 00:42:44;;;;;;;;;;;;;;;24.12;55.88;100431.72;5047854;28;4205;-60
2022/06/25 00:45:11;;;;;;;;;;;;;;;24.11;56.21;100436.03;5069040;28;5466;-60
2022/06/25 00:47:37;;;;;;;;;;;;;;;24.11;56.11;100436.03;5051385;28;4234;-59
2022/06/25 00:50:04;;;;;;;;;;;;;;;24.11;56.40;100423.72;5047725;28;4171;-60
2022/06/25 00:52:33;;;;;;;;;;;;;;;24.11;56.56;100432.41;5049252;28;4217;-60
2022/06/25 00:55:07;;;;;;;;;;;;;;;24.08;56.16;100425.84;5036655;28;4224;-60
2022/06/25 00:57:34;;;;;;;;;;;;;;;24.10;56.42;100428.78;5039547;28;5135;-59
2022/06/25 01:00:02;;;;;;;;;;;;;;;24.10;56.35;100422.22;5040136;28;4168;-59
2022/06/25 01:02:30;;;;;;;;;;;;;;;24.09;56.52;100423.66;5046979;28;4195;-59
2022/06/25 01:04:57;;;;;;;;;;;;;;;24.09;56.45;100415.72;5042841;28;4044;-59
2022/06/25 01:07:23;;;;;;;;;;;;;;;24.09;56.65;100412.81;5037181;28;4210;-59
2022/06/25 01:09:50;;;;;;;;;;;;;;;24.10;56.41;100411.41;5035699;28;4244;-59
2022/06/25 01:12:17;;;;;;;;;;;;;;;24.10;56.56;100408.53;5037882;28;5398;-59
2022/06/25 01:14:44;;;;;;;;;;;;;;;24.09;56.75;100409.94;5040454;28;4567;-59
2022/06/25 01:17:12;;;;;;;;;;;;;;;24.10;56.87;100405.63;5038627;28;4130;-59
2022/06/25 01:19:38;;;;;;;;;;;;;;;24.09;56.88;100412.81;5044529;28;4221;-59
2022/06/25 01:22:06;;;;;;;;;;;;;;;24.09;56.98;100409.22;5038383;28;4248;-59
2022/06/25 01:24:32;;;;;;;;;;;;;;;24.09;57.00;100409.94;5039607;28;4336;-59
2022/06/25 01:26:59;;;;;;;;;;;;;;;24.09;56.87;100415.00;5039284;28;5212;-59
2022/06/25 01:29:25;;;;;;;;;;;;;;;24.08;57.09;100411.38;5040349;28;4160;-59
2022/06/25 01:31:52;;;;;;;;;;;;;;;24.08;57.01;100414.25;5038465;28;5380;-59
2022/06/25 01:34:19;;;;;;;;;;;;;;;24.07;57.15;100409.88;5038245;28;5232;-60
2022/06/25 01:36:45;;;;;;;;;;;;;;;24.07;57.07;100406.25;5042920;28;4195;-59
2022/06/25 01:39:11;;;;;;;;;;;;;;;24.04;57.22;100409.09;5040702;28;4198;-59
2022/06/25 01:41:38;;;;;;;;;;;;;;;24.04;57.06;100414.16;5040586;28;4240;-59
2022/06/25 01:44:04;;;;;;;;;;;;;;;24.04;57.08;100414.88;5038223;28;5628;-59
2022/06/25 01:46:30;;;;;;;;;;;;;;;24.03;57.01;100413.44;5043014;28;4153;-59
2022/06/25 01:48:57;;;;;;;;;;;;;;;24.03;57.37;100413.44;5036315;28;4155;-59
2022/06/25 01:51:23;;;;;;;;;;;;;;;24.03;57.42;100418.47;5033123;28;5272;-59
2022/06/25 01:54:04;;;;;;;;;;;;;;;24.03;57.43;100424.25;5027701;28;4036;-59
2022/06/25 01:56:30;;;;;;;;;;;;;;;24.02;57.53;100420.63;5038263;28;5339;-60
2022/06/25 01:58:56;;;;;;;;;;;;;;;24.02;57.24;100422.78;5037844;28;5348;-60
2022/06/25 02:01:24;;;;;;;;;;;;;;;24.00;57.48;100403.22;5021628;28;4236;-59
2022/06/25 02:03:51;;;;;;;;;;;;;;;24.00;57.63;100406.09;5022701;28;5287;-60
2022/06/25 02:06:17;;;;;;;;;;;;;;;24.00;57.56;100419.84;5029175;28;4209;-60
2022/06/25 02:08:43;;;;;;;;;;;;;;;24.00;57.67;100416.94;5024691;28;4553;-60
2022/06/25 02:11:10;;;;;;;;;;;;;;;23.99;57.55;100407.53;5030215;28;4241;-60
2022/06/25 02:13:36;;;;;;;;;;;;;;;24.00;57.57;100414.06;5033829;28;4227;-60
2022/06/25 02:16:03;;;;;;;;;;;;;;;24.00;57.41;100414.06;5031464;28;4341;-60
2022/06/25 02:18:34;;;;;;;;;;;;;;;24.00;57.72;100419.84;5029047;28;4211;-59
2022/06/25 02:21:00;;;;;;;;;;;;;;;23.98;57.54;100420.53;5037119;28;5219;-60
2022/06/25 02:23:27;;;;;;;;;;;;;;;24.00;57.59;100419.84;5034412;28;4235;-59
2022/06/25 02:25:55;;;;;;;;;;;;;;;23.98;57.41;100411.88;5038283;28;4883;-60
2022/06/25 02:28:22;;;;;;;;;;;;;;;23.97;57.76;100419.06;5034848;28;5480;-60
2022/06/25 02:30:48;;;;;;;;;;;;;;;23.97;57.66;100427.00;5033682;28;4061;-60
2022/06/25 02:33:15;;;;;;;;;;;;;;;23.97;57.61;100435.69;5034986;28;5225;-60
2022/06/25 02:35:42;;;;;;;;;;;;;;;23.96;57.79;100437.84;5052086;28;4881;-60
2022/06/25 02:38:10;;;;;;;;;;;;;;;23.97;57.77;100438.56;5032209;28;4194;-59
2022/06/25 02:40:37;;;;;;;;;;;;;;;23.96;57.80;100442.88;5040314;28;4235;-59
2022/06/25 02:43:05;;;;;;;;;;;;;;;23.95;57.84;100442.13;5046461;28;5237;-59
2022/06/25 02:45:37;;;;;;;;;;;;;;;23.95;57.87;100447.19;5045753;28;4785;-59
2022/06/25 02:48:04;;;;;;;;;;;;;;;23.95;57.79;100444.31;5055439;28;4215;-59
2022/06/25 02:50:30;;;;;;;;;;;;;;;23.95;57.74;100452.97;5053526;28;4222;-59
2022/06/25 02:52:57;;;;;;;;;;;;;;;23.94;57.71;100451.50;5040323;28;4194;-59
2022/06/25 02:58:54;;;;;;;;;;;;;;;23.94;57.94;100451.50;5046133;28;5598;-59
2022/06/25 03:00:57;;;;;;;;;;;;;;;23.93;57.72;100458.69;5039640;28;4184;-59
2022/06/25 03:03:24;;;;;;;;;;;;;;;23.93;57.62;100458.69;5026634;28;5475;-59
2022/06/25 03:05:51;;;;;;;;;;;;;;;23.92;57.56;100466.66;5037968;28;4201;-59
2022/06/25 03:08:18;;;;;;;;;;;;;;;23.93;57.53;100468.09;5046887;28;5362;-59
2022/06/25 03:10:45;;;;;;;;;;;;;;;23.91;57.70;100468.06;5041866;28;4179;-59
2022/06/25 03:13:11;;;;;;;;;;;;;;;23.92;57.97;100472.44;5044347;28;5320;-59
2022/06/25 03:15:37;;;;;;;;;;;;;;;23.88;58.14;100477.38;5046830;28;4279;-60
2022/06/25 03:18:04;;;;;;;;;;;;;;;23.86;58.54;100480.22;5053727;28;4288;-59
2022/06/25 03:20:53;;;;;;;;;;;;;;;23.73;59.30;100482.00;5051993;28;4014;-59
2022/06/25 03:23:19;;;;;;;;;;;;;;;23.64;59.26;100492.63;5052996;28;4810;-59
2022/06/25 03:25:46;;;;;;;;;;;;;;;23.55;59.92;100500.34;5054929;28;4206;-59
2022/06/25 03:28:13;;;;;;;;;;;;;;;23.42;59.76;100499.25;5048668;28;4338;-59
2022/06/25 03:30:42;;;;;;;;;;;;;;;23.31;60.01;100503.28;5054241;28;4382;-59
2022/06/25 03:33:09;;;;;;;;;;;;;;;23.29;60.36;100496.72;5052053;28;5328;-59
2022/06/25 03:35:40;;;;;;;;;;;;;;;23.28;60.27;100501.75;5055596;28;4241;-59
2022/06/25 03:38:10;;;;;;;;;;;;;;;23.24;60.39;100501.63;5058495;28;4188;-59
2022/06/25 03:40:37;;;;;;;;;;;;;;;23.23;60.63;100494.41;5053884;28;4216;-59
2022/06/25 03:43:06;;;;;;;;;;;;;;;23.20;60.56;100501.50;5051954;28;4144;-59
2022/06/25 03:45:35;;;;;;;;;;;;;;;23.16;60.91;100504.31;5044953;28;4289;-59
2022/06/25 03:48:02;;;;;;;;;;;;;;;23.15;60.97;100512.22;5054645;28;4923;-59
2022/06/25 03:50:34;;;;;;;;;;;;;;;23.13;61.58;100509.25;5056610;28;4210;-59
2022/06/25 03:53:01;;;;;;;;;;;;;;;23.08;61.73;100512.72;5052949;28;4259;-59
2022/06/25 03:55:27;;;;;;;;;;;;;;;23.04;62.25;100530.66;5048656;28;4171;-59
2022/06/25 03:58:14;;;;;;;;;;;;;;;22.94;62.57;100531.06;5041076;28;4042;-60
2022/06/25 04:00:40;;;;;;;;;;;;;;;22.92;62.25;100531.00;5060101;28;4043;-59
2022/06/25 04:03:07;;;;;;;;;;;;;;;22.93;62.64;100528.84;5025312;28;4235;-59
2022/06/25 04:05:45;;;;;;;;;;;;;;;22.93;62.58;100529.59;5040127;28;4153;-59
2022/06/25 04:08:26;;;;;;;;;;;;;;;22.92;62.98;100536.78;5057603;28;4243;-59
2022/06/25 04:10:53;;;;;;;;;;;;;;;22.92;62.90;100539.66;5044126;28;4088;-59
2022/06/25 04:13:20;;;;;;;;;;;;;;;22.92;63.21;100541.81;5034398;28;4343;-59
2022/06/25 04:15:47;;;;;;;;;;;;;;;22.87;63.58;100546.72;5042090;28;4290;-59
2022/06/25 04:18:14;;;;;;;;;;;;;;;22.85;63.86;100538.00;5048432;28;5368;-60
2022/06/25 04:20:40;;;;;;;;;;;;;;;22.87;63.99;100548.88;5044708;28;4200;-59
2022/06/25 04:23:08;;;;;;;;;;;;;;;22.87;63.93;100546.00;5046636;28;5366;-59
2022/06/25 04:25:34;;;;;;;;;;;;;;;22.88;64.29;100553.22;5039146;28;4153;-59
2022/06/25 04:30:47;;;;;;;;;;;;;;;22.88;64.50;100564.78;5044878;28;5433;-59
2022/06/25 04:33:14;;;;;;;;;;;;;;;22.90;64.89;100551.13;5045583;28;5635;-59
2022/06/25 04:36:01;;;;;;;;;;;;;;;22.93;65.25;100554.81;5034222;28;4160;-59
2022/06/25 04:38:44;;;;;;;;;;;;;;;22.95;65.78;100558.53;5046478;28;4211;-59
2022/06/25 04:41:10;;;;;;;;;;;;;;;22.94;65.88;100557.03;5028084;28;4255;-60
2022/06/25 04:43:36;;;;;;;;;;;;;;;22.96;66.56;100565.78;5041567;28;4363;-59
2022/06/25 04:46:08;;;;;;;;;;;;;;;22.97;67.00;100555.69;5018440;28;4250;-59
2022/06/25 04:48:39;;;;;;;;;;;;;;;22.95;67.31;100570.09;5025485;28;4197;-59
2022/06/25 04:51:31;;;;;;;;;;;;;;;22.97;67.58;100569.38;5015396;28;4136;-59
2022/06/25 04:53:57;;;;;;;;;;;;;;;22.96;68.20;100577.31;5022074;28;4131;-59
2022/06/25 04:56:34;;;;;;;;;;;;;;;22.99;68.06;100576.00;5017573;28;4083;-59
2022/06/25 04:59:00;;;;;;;;;;;;;;;23.03;68.67;100569.63;5017017;28;4132;-59
2022/06/25 05:01:45;;;;;;;;;;;;;;;23.04;69.30;100587.66;5022904;28;4275;-59
2022/06/25 05:04:12;;;;;;;;;;;;;;;23.03;69.44;100589.81;5021442;28;4757;-59
2022/06/25 05:06:38;;;;;;;;;;;;;;;23.04;69.11;100587.66;5020565;28;4251;-59
2022/06/25 05:09:04;;;;;;;;;;;;;;;22.76;71.70;100588.22;5032115;28;4507;-59
2022/06/25 05:11:31;;;;;;;;;;;;;;;22.68;72.25;100599.53;5045442;28;4177;-59
2022/06/25 05:13:57;;;;;;;;;;;;;;;22.64;72.39;100587.84;5031217;28;4191;-58
2022/06/25 05:16:24;;;;;;;;;;;;;;;22.73;72.46;100601.13;5042117;28;4282;-58
2022/06/25 05:18:51;;;;;;;;;;;;;;;22.61;73.38;100594.94;5037502;28;4203;-60
2022/06/25 05:21:17;;;;;;;;;;;;;;;22.63;72.63;100598.66;5034479;28;4206;-59
2022/06/25 05:23:44;;;;;;;;;;;;;;;22.68;72.35;100600.25;5033162;28;5482;-59
2022/06/25 05:26:11;;;;;;;;;;;;;;;22.61;73.08;100592.06;5023436;28;4199;-65
2022/06/25 05:28:37;;;;;;;;;;;;;;;22.74;72.93;100605.47;5031297;28;4183;-59
2022/06/25 05:31:03;;;;;;;;;;;;;;;22.83;72.10;100607.22;5025156;28;5418;-59
2022/06/25 05:33:31;;;;;;;;;;;;;;;22.88;71.18;100605.94;5031693;28;5422;-60
2022/06/25 05:35:58;;;;;;;;;;;;;;;22.84;72.40;100614.47;5030777;28;4141;-62
2022/06/25 05:38:24;;;;;;;;;;;;;;;22.95;70.94;100606.84;5032450;28;4462;-62
2022/06/25 05:40:51;;;;;;;;;;;;;;;23.04;70.35;100610.78;5047962;28;4218;-61
2022/06/25 05:43:17;;;;;;;;;;;;;;;23.00;70.58;100602.75;5034479;28;5686;-62
2022/06/25 05:45:43;;;;;;;;;;;;;;;23.03;69.82;100607.16;5038090;28;4263;-62
2022/06/25 05:48:10;;;;;;;;;;;;;;;23.09;69.47;100612.38;5041261;28;5468;-62
2022/06/25 05:50:36;;;;;;;;;;;;;;;23.12;69.58;100617.56;5041147;28;4105;-64
2022/06/25 05:53:03;;;;;;;;;;;;;;;23.10;69.12;100619.63;5037242;28;5280;-62
2022/06/25 05:55:29;;;;;;;;;;;;;;;23.10;70.41;100617.47;5029130;28;4008;-62
2022/06/25 05:57:56;;;;;;;;;;;;;;;23.19;70.38;100621.38;5030625;28;4210;-62
2022/06/25 06:00:22;;;;;;;;;;;;;;;23.05;71.81;100623.81;5040325;28;5338;-61
2022/06/25 06:02:48;;;;;;;;;;;;;;;22.95;71.50;100607.63;5034321;28;5289;-62
2022/06/25 06:05:15;;;;;;;;;;;;;;;22.86;72.31;100614.53;5034323;28;4535;-62
2022/06/25 06:07:41;;;;;;;;;;;;;;;23.00;71.51;100617.91;5035649;28;5267;-66
2022/06/25 06:10:07;;;;;;;;;;;;;;;23.17;70.12;100618.41;5037638;28;4195;-70
2022/06/25 06:12:34;;;;;;;;;;;;;;;23.25;69.83;100617.91;5029308;28;4205;-68
2022/06/25 06:15:00;;;;;;;;;;;;;;;23.30;68.96;100623.16;5029718;28;4341;-66
2022/06/25 06:17:52;;;;;;;;;;;;;;;23.37;68.71;100624.09;5025647;28;5540;-65
2022/06/25 06:20:18;;;;;;;;;;;;;;;23.36;68.80;100626.22;5036265;28;4252;-64
2022/06/25 06:22:45;;;;;;;;;;;;;;;23.37;68.78;100629.84;5041510;28;5537;-65
2022/06/25 06:25:11;;;;;;;;;;;;;;;23.38;68.77;100626.28;5039796;28;5527;-65
2022/06/25 06:27:37;;;;;;;;;;;;;;;23.41;68.30;100630.00;5041106;28;5500;-65
2022/06/25 06:30:04;;;;;;;;;;;;;;;23.41;68.28;100624.22;5041964;28;4190;-65
2022/06/25 06:32:31;;;;;;;;;;;;;;;23.42;67.84;100626.41;5040616;28;5231;-65
2022/06/25 06:34:57;;;;;;;;;;;;;;;23.44;67.29;100633.66;5040716;28;5535;-65
2022/06/25 06:37:23;;;;;;;;;;;;;;;23.46;67.06;100627.97;5040782;28;4198;-65
2022/06/25 06:39:50;;;;;;;;;;;;;;;23.48;66.96;100636.66;5041473;28;4192;-65
2022/06/25 06:42:16;;;;;;;;;;;;;;;23.48;66.52;100636.66;5039606;28;4225;-65
2022/06/25 06:44:42;;;;;;;;;;;;;;;23.49;66.38;100635.25;5041344;28;4134;-64
2022/06/25 06:47:09;;;;;;;;;;;;;;;23.51;66.31;100641.09;5040687;28;4125;-65
2022/06/25 06:49:35;;;;;;;;;;;;;;;23.51;65.87;100635.31;5041594;28;5233;-65
2022/06/25 06:52:02;;;;;;;;;;;;;;;23.52;65.63;100642.56;5041373;28;4235;-65
2022/06/25 06:54:28;;;;;;;;;;;;;;;23.53;65.75;100652.72;5040888;28;4179;-64
2022/06/25 06:56:55;;;;;;;;;;;;;;;23.55;65.68;100655.69;5031833;28;4182;-65
2022/06/25 06:59:22;;;;;;;;;;;;;;;23.55;64.99;100655.69;5036013;28;4204;-64
2022/06/25 07:01:48;;;;;;;;;;;;;;;23.56;64.91;100657.16;5037942;28;5366;-64
2022/06/25 07:04:14;;;;;;;;;;;;;;;23.57;64.78;100658.59;5029217;28;4240;-65
2022/06/25 07:06:41;;;;;;;;;;;;;;;23.58;64.67;100665.88;5037765;28;5323;-64
2022/06/25 07:09:07;;;;;;;;;;;;;;;23.59;64.76;100658.69;5032521;28;4245;-64
2022/06/25 07:11:34;;;;;;;;;;;;;;;23.60;64.63;100663.06;5030091;28;5211;-65
2022/06/25 07:14:04;;;;;;;;;;;;;;;23.60;64.75;100663.78;5036418;28;4118;-65
2022/06/25 07:16:30;;;;;;;;;;;;;;;23.61;64.47;100661.63;5032555;28;5195;-65
2022/06/25 07:18:57;;;;;;;;;;;;;;;23.61;64.08;100658.75;5035387;28;4330;-64
2022/06/25 07:21:23;;;;;;;;;;;;;;;23.61;63.96;100652.97;5034998;28;5245;-65
2022/06/25 07:23:50;;;;;;;;;;;;;;;23.62;63.98;100654.44;5035136;28;4164;-64
2022/06/25 07:26:16;;;;;;;;;;;;;;;23.62;63.76;100654.44;5033070;28;5239;-65
2022/06/25 07:28:43;;;;;;;;;;;;;;;23.63;63.88;100662.41;5032758;28;4251;-65
2022/06/25 07:31:09;;;;;;;;;;;;;;;23.64;63.91;100640.06;5028371;28;5214;-65
2022/06/25 07:33:35;;;;;;;;;;;;;;;23.65;63.57;100653.09;5033067;28;5265;-65
2022/06/25 07:36:02;;;;;;;;;;;;;;;23.66;63.48;100653.81;5034328;28;4226;-65
2022/06/25 07:38:28;;;;;;;;;;;;;;;23.66;63.27;100657.44;5035114;28;4166;-65
2022/06/25 07:40:54;;;;;;;;;;;;;;;23.67;63.38;100644.47;5035385;28;4223;-65
2022/06/25 07:43:21;;;;;;;;;;;;;;;23.67;63.12;100649.53;5035181;28;4249;-64
2022/06/25 07:45:48;;;;;;;;;;;;;;;23.68;63.35;100648.81;5037677;28;4049;-65
2022/06/25 07:48:14;;;;;;;;;;;;;;;23.68;63.14;100645.94;5034869;28;4198;-65
2022/06/25 07:53:27;;;;;;;;;;;;;;;23.71;63.17;100656.16;5033658;28;4187;-65
2022/06/25 07:55:53;;;;;;;;;;;;;;;23.72;62.67;100651.84;5032726;28;4244;-64
2022/06/25 07:58:19;;;;;;;;;;;;;;;23.73;62.63;100653.34;5036922;28;4294;-66
2022/06/25 08:00:46;;;;;;;;;;;;;;;23.73;62.79;100641.00;5038073;28;4258;-66
2022/06/25 08:03:12;;;;;;;;;;;;;;;23.73;62.77;100647.56;5035626;28;4213;-66
2022/06/25 08:05:39;;;;;;;;;;;;;;;23.74;62.69;100651.19;5038239;28;4064;-65
2022/06/25 08:08:05;;;;;;;;;;;;;;;23.73;62.64;100647.56;5037386;28;4388;-65
2022/06/25 08:10:31;;;;;;;;;;;;;;;23.75;62.25;100652.66;5034191;28;5250;-65
2022/06/25 08:12:58;;;;;;;;;;;;;;;23.74;62.51;100649.03;5037508;28;4195;-65
2022/06/25 08:15:24;;;;;;;;;;;;;;;23.74;62.21;100649.03;5033326;28;4186;-66
2022/06/25 08:17:51;;;;;;;;;;;;;;;23.76;62.35;100657.03;5036691;28;4133;-65
2022/06/25 08:20:17;;;;;;;;;;;;;;;23.75;62.30;100662.06;5036973;28;4197;-66
2022/06/25 08:22:44;;;;;;;;;;;;;;;23.76;62.28;100666.44;5037638;28;5347;-65
2022/06/25 08:25:10;;;;;;;;;;;;;;;23.77;62.06;100659.25;5037663;28;4190;-66
2022/06/25 08:27:50;;;;;;;;;;;;;;;23.76;61.68;100660.66;5034750;28;4122;-65
2022/06/25 08:30:19;;;;;;;;;;;;;;;23.77;61.83;100665.03;5036285;28;5462;-66
2022/06/25 08:32:45;;;;;;;;;;;;;;;23.77;61.63;100670.81;5037017;28;5357;-66
2022/06/25 08:35:12;;;;;;;;;;;;;;;23.76;61.87;100672.22;5037512;28;5254;-65
2022/06/25 08:37:39;;;;;;;;;;;;;;;23.76;61.93;100675.13;5037693;28;4204;-66
2022/06/25 08:40:06;;;;;;;;;;;;;;;23.78;62.00;100686.03;5027634;28;4208;-66
2022/06/25 08:42:32;;;;;;;;;;;;;;;23.78;62.08;100683.88;5034338;28;4403;-66
2022/06/25 08:44:58;;;;;;;;;;;;;;;23.79;62.09;100678.81;5032775;28;5561;-66
2022/06/25 08:47:25;;;;;;;;;;;;;;;23.80;62.00;100680.28;5036967;28;4212;-64
2022/06/25 08:49:51;;;;;;;;;;;;;;;23.80;62.05;100681.03;5033881;28;4048;-66
2022/06/25 08:52:18;;;;;;;;;;;;;;;23.80;62.21;100675.25;5032018;28;4290;-70
2022/06/25 08:54:45;;;;;;;;;;;;;;;23.80;61.83;100686.81;5029536;28;4252;-65
2022/06/25 08:57:11;;;;;;;;;;;;;;;23.80;62.15;100680.28;5026969;28;4206;-65
2022/06/25 08:59:38;;;;;;;;;;;;;;;23.81;62.28;100681.75;5035134;28;5239;-65
2022/06/25 09:02:04;;;;;;;;;;;;;;;23.82;61.99;100689.00;5029892;28;4085;-65
2022/06/25 09:04:31;;;;;;;;;;;;;;;23.82;61.85;100686.13;5034050;28;4218;-65
2022/06/25 09:07:14;;;;;;;;;;;;;;;23.82;62.04;100689.00;5035047;28;4237;-65
2022/06/25 09:09:45;;;;;;;;;;;;;;;23.82;62.23;100689.78;5036397;28;4161;-65
2022/06/25 09:12:14;;;;;;;;;;;;;;;23.82;62.28;100684.00;5030807;28;4248;-67
2022/06/25 09:14:41;;;;;;;;;;;;;;;23.83;62.25;100685.44;5031842;28;4245;-66
2022/06/25 09:17:09;;;;;;;;;;;;;;;23.83;62.06;100679.66;5031558;28;5346;-66
2022/06/25 09:19:39;;;;;;;;;;;;;;;23.85;62.28;100681.88;5034743;28;4264;-66
2022/06/25 09:22:06;;;;;;;;;;;;;;;23.85;62.01;100686.94;5034636;28;4269;-67
2022/06/25 09:24:42;;;;;;;;;;;;;;;23.85;61.96;100678.25;5033546;28;4354;-66
2022/06/25 09:27:09;;;;;;;;;;;;;;;23.86;61.99;100682.63;5032310;28;4185;-66
2022/06/25 09:29:35;;;;;;;;;;;;;;;23.86;62.23;100682.63;5032559;28;5483;-65
2022/06/25 09:32:02;;;;;;;;;;;;;;;23.85;62.25;100681.16;5028631;28;4209;-65
2022/06/25 09:34:32;;;;;;;;;;;;;;;23.83;62.00;100673.88;5025689;28;4427;-65
2022/06/25 09:36:58;;;;;;;;;;;;;;;23.86;62.18;100679.72;5034404;28;5494;-66
2022/06/25 09:39:26;;;;;;;;;;;;;;;23.86;62.24;100676.84;5032034;28;4182;-66
2022/06/25 09:41:57;;;;;;;;;;;;;;;23.87;62.07;100681.19;5048001;28;4444;-66
2022/06/25 09:44:23;;;;;;;;;;;;;;;23.86;62.07;100683.34;5026293;28;4173;-66
2022/06/25 09:46:56;;;;;;;;;;;;;;;23.87;61.96;100689.88;5033760;28;4098;-66
2022/06/25 09:49:23;;;;;;;;;;;;;;;23.88;61.90;100691.34;5035885;28;4093;-65
2022/06/25 09:52:00;;;;;;;;;;;;;;;23.88;62.12;100692.09;5036148;28;4177;-66
2022/06/25 09:54:26;;;;;;;;;;;;;;;23.87;62.10;100695.66;5033133;28;4417;-66
2022/06/25 09:56:53;;;;;;;;;;;;;;;23.89;62.11;100689.94;5029209;28;4205;-66
2022/06/25 09:59:20;;;;;;;;;;;;;;;23.88;62.03;100692.09;5023419;28;4173;-66
2022/06/25 10:01:47;;;;;;;;;;;;;;;23.90;62.11;100689.25;5029856;28;4218;-66
2022/06/25 10:04:13;;;;;;;;;;;;;;;23.91;62.12;100690.00;5031826;28;4238;-66
2022/06/25 10:06:40;;;;;;;;;;;;;;;23.90;62.12;100691.41;5027575;28;4435;-66
2022/06/25 10:09:06;;;;;;;;;;;;;;;23.91;62.08;100692.88;5034830;28;4138;-66
2022/06/25 10:11:34;;;;;;;;;;;;;;;23.91;62.17;100695.78;5033705;28;4204;-66
2022/06/25 10:14:00;;;;;;;;;;;;;;;23.89;61.84;100690.69;5029874;28;5326;-67
2022/06/25 10:16:28;;;;;;;;;;;;;;;23.91;61.72;100696.50;5034369;28;5479;-66
2022/06/25 10:18:55;;;;;;;;;;;;;;;23.93;61.94;100698.72;5030701;28;4219;-66
2022/06/25 10:21:22;;;;;;;;;;;;;;;23.93;61.99;100692.94;5029529;28;5225;-66
2022/06/25 10:23:49;;;;;;;;;;;;;;;23.93;61.60;100695.84;5031237;28;4238;-66
2022/06/25 10:26:15;;;;;;;;;;;;;;;23.93;61.79;100698.72;5032410;28;4147;-66
2022/06/25 10:28:42;;;;;;;;;;;;;;;23.94;61.81;100688.66;5026848;28;4180;-66
2022/06/25 10:31:12;;;;;;;;;;;;;;;23.95;61.96;100704.56;5026127;28;5678;-66
2022/06/25 10:33:55;;;;;;;;;;;;;;;23.95;61.87;100690.13;5033741;28;4193;-67
2022/06/25 10:36:39;;;;;;;;;;;;;;;23.95;61.85;100690.84;5037227;28;4299;-67
2022/06/25 10:39:24;;;;;;;;;;;;;;;23.96;61.56;100685.78;5035825;28;6366;-66
2022/06/25 10:45:01;;;;;;;;;;;;;;;23.96;61.46;100680.75;5033371;28;6463;-67
2022/06/25 10:47:46;;;;;;;;;;;;;;;23.96;61.44;100680.75;5035531;28;5206;-66
2022/06/25 10:50:21;;;;;;;;;;;;;;;23.97;61.63;100681.50;5065888;28;4185;-67
2022/06/25 10:53:08;;;;;;;;;;;;;;;23.98;61.70;100683.72;5041533;28;4216;-67
2022/06/25 10:55:35;;;;;;;;;;;;;;;23.99;61.61;100679.41;5034369;28;6295;-66
2022/06/25 10:58:23;;;;;;;;;;;;;;;23.99;61.50;100681.56;5026052;28;4091;-66
2022/06/25 11:01:00;;;;;;;;;;;;;;;23.99;61.20;100688.06;5034021;28;5911;-66
2022/06/25 11:03:27;;;;;;;;;;;;;;;23.99;61.24;100688.06;5030427;28;5203;-67
2022/06/25 11:05:53;;;;;;;;;;;;;;;24.00;61.47;100691.69;5033158;28;4182;-66
2022/06/25 11:08:22;;;;;;;;;;;;;;;24.00;61.52;100691.69;5037263;28;4079;-66
2022/06/25 11:10:49;;;;;;;;;;;;;;;24.01;61.32;100687.41;5037172;28;4534;-65
2022/06/25 11:13:15;;;;;;;;;;;;;;;24.04;61.17;100691.81;5037630;28;4328;-66
2022/06/25 11:15:42;;;;;;;;;;;;;;;24.02;61.62;100689.59;5034281;28;4243;-66
2022/06/25 11:18:13;;;;;;;;;;;;;;;24.04;61.59;100688.94;5036446;28;5308;-67
2022/06/25 11:20:39;;;;;;;;;;;;;;;24.04;61.40;100686.03;5029438;28;5275;-66
2022/06/25 11:23:05;;;;;;;;;;;;;;;24.02;61.40;100669.34;5034971;28;4166;-67
2022/06/25 11:28:47;;;;;;;;;;;;;;;24.01;61.47;100681.63;5031286;28;4121;-66
2022/06/25 11:31:14;;;;;;;;;;;;;;;24.03;61.65;100679.53;5032438;28;4204;-67
2022/06/25 11:33:43;;;;;;;;;;;;;;;24.04;61.56;100674.47;5038214;28;4299;-66
2022/06/25 11:36:12;;;;;;;;;;;;;;;24.02;61.30;100683.81;5035697;28;4173;-66
2022/06/25 11:38:40;;;;;;;;;;;;;;;24.03;61.38;100684.56;5049289;28;4238;-66
2022/06/25 11:41:06;;;;;;;;;;;;;;;24.04;61.51;100686.75;5051773;28;4142;-66
2022/06/25 11:43:35;;;;;;;;;;;;;;;24.01;61.57;100682.34;5056298;28;4141;-67
2022/06/25 11:46:02;;;;;;;;;;;;;;;24.04;61.61;100680.25;5053632;28;3987;-66
2022/06/25 11:48:28;;;;;;;;;;;;;;;24.04;61.52;100678.09;5048488;28;5022;-67
2022/06/25 11:50:55;;;;;;;;;;;;;;;24.05;61.43;100681.72;5054509;28;4132;-67
2022/06/25 11:53:28;;;;;;;;;;;;;;;24.05;61.43;100684.59;5051686;28;4231;-66
2022/06/25 11:55:58;;;;;;;;;;;;;;;24.06;61.38;100691.88;5054369;28;5306;-65
2022/06/25 11:58:26;;;;;;;;;;;;;;;24.05;61.55;100684.59;5055432;28;4005;-66
2022/06/25 12:00:56;;;;;;;;;;;;;;;24.07;61.47;100686.81;5045916;28;4204;-67
2022/06/25 12:03:22;;;;;;;;;;;;;;;24.07;61.51;100683.94;5047488;28;4178;-65
2022/06/25 12:05:49;;;;;;;;;;;;;;;24.07;61.46;100696.22;5052468;28;4097;-66
2022/06/25 12:08:15;;;;;;;;;;;;;;;24.08;61.36;100685.44;5053167;28;4227;-67
2022/06/25 12:10:47;;;;;;;;;;;;;;;24.07;61.43;100683.94;5050040;28;4067;-65
2022/06/25 12:13:17;;;;;;;;;;;;;;;24.05;61.07;100687.50;5020547;28;4410;-66
2022/06/25 12:15:43;;;;;;;;;;;;;;;24.08;61.42;100685.44;5026072;28;4130;-66
2022/06/25 12:18:09;;;;;;;;;;;;;;;24.08;61.05;100686.16;5023937;28;5271;-66
2022/06/25 12:20:51;;;;;;;;;;;;;;;24.10;61.34;100686.22;5025150;28;4139;-67
2022/06/25 12:23:18;;;;;;;;;;;;;;;24.11;61.29;100684.78;5034586;28;4179;-68
2022/06/25 12:25:44;;;;;;;;;;;;;;;24.11;61.17;100679.00;5035063;28;4144;-67
2022/06/25 12:28:10;;;;;;;;;;;;;;;24.12;61.14;100679.72;5035278;28;4168;-65
2022/06/25 12:30:37;;;;;;;;;;;;;;;24.13;61.17;100679.06;5033744;28;4308;-67
2022/06/25 12:33:04;;;;;;;;;;;;;;;24.13;61.35;100684.13;5056740;28;4228;-65
2022/06/25 12:35:36;;;;;;;;;;;;;;;24.13;61.19;100684.84;5031310;28;4126;-66
2022/06/25 12:38:03;;;;;;;;;;;;;;;24.16;61.01;100679.84;5022255;28;4238;-65
2022/06/25 12:40:30;;;;;;;;;;;;;;;24.18;61.09;100677.75;5029235;28;5317;-70
2022/06/25 12:42:57;;;;;;;;;;;;;;;24.21;61.22;100669.84;5029542;28;5167;-67
2022/06/25 12:45:23;;;;;;;;;;;;;;;24.23;61.02;100667.78;5033472;28;4195;-69
2022/06/25 12:47:50;;;;;;;;;;;;;;;24.24;60.98;100662.72;5032770;28;4396;-70
2022/06/25 12:50:20;;;;;;;;;;;;;;;24.22;60.99;100674.97;5033602;28;4153;-71
2022/06/25 12:52:46;;;;;;;;;;;;;;;24.21;61.15;100673.50;5033448;28;4469;-68
2022/06/25 12:55:23;;;;;;;;;;;;;;;24.20;61.06;100680.69;5031959;28;5343;-71
2022/06/25 12:57:53;;;;;;;;;;;;;;;24.19;61.14;100676.34;5034490;28;4265;-71
2022/06/25 13:00:20;;;;;;;;;;;;;;;24.18;61.03;100671.97;5030381;28;4228;-68
2022/06/25 13:02:47;;;;;;;;;;;;;;;24.18;61.08;100677.75;5031433;28;4211;-67
2022/06/25 13:05:14;;;;;;;;;;;;;;;24.17;61.12;100664.72;5034918;28;4011;-71
2022/06/25 13:07:41;;;;;;;;;;;;;;;24.17;61.37;100670.50;5032623;28;5283;-66